createdAt,value
2018-03-24T00:00:03.293Z,5.00
2018-03-24T00:02:30.750Z,4.95
2018-03-24T00:04:58.216Z,4.95
2018-03-24T00:07:25.709Z,4.91
2018-03-24T00:09:53.201Z,4.99
2018-03-24T00:12:20.705Z,4.99
2018-03-24T00:14:48.258Z,4.93
2018-03-24T00:17:15.743Z,4.94
2018-03-24T00:19:43.211Z,4.97
2018-03-24T00:22:10.753Z,4.98
2018-03-24T00:24:38.216Z,4.91
2018-03-24T00:27:06.356Z,4.89
2018-03-24T00:29:33.845Z,4.94
2018-03-24T00:32:01.355Z,4.95
2018-03-24T00:34:28.897Z,4.88
2018-03-24T00:36:56.352Z,4.83
2018-03-24T00:39:23.844Z,4.78
2018-03-24T00:41:51.332Z,4.87
2018-03-24T00:44:18.853Z,4.85
2018-03-24T00:46:46.381Z,4.84
2018-03-24T00:49:14.774Z,4.91
2018-03-24T00:51:42.604Z,4.90
2018-03-24T00:54:10.711Z,4.83
2018-03-24T00:56:38.264Z,4.86
2018-03-24T00:59:06.314Z,4.83
2018-03-24T01:01:34.439Z,4.99
2018-03-24T01:04:01.931Z,4.87
2018-03-24T01:06:30.307Z,4.83
2018-03-24T01:08:57.862Z,4.86
2018-03-24T01:11:27.694Z,5.05
2018-03-24T01:13:55.185Z,4.97
2018-03-24T01:16:22.648Z,4.87
2018-03-24T01:18:50.118Z,4.83
2018-03-24T01:21:17.595Z,4.76
2018-03-24T01:23:45.052Z,4.76
2018-03-24T01:26:12.554Z,4.76
2018-03-24T01:28:40.877Z,4.70
2018-03-24T01:31:08.429Z,4.67
2018-03-24T01:33:35.901Z,4.64
2018-03-24T01:36:03.367Z,4.69
2018-03-24T01:38:30.844Z,4.72
2018-03-24T01:40:58.344Z,4.71
2018-03-24T01:43:25.797Z,4.67
2018-03-24T01:45:53.260Z,4.59
2018-03-24T01:48:20.752Z,4.67
2018-03-24T01:50:48.223Z,4.66
2018-03-24T01:53:15.721Z,4.54
2018-03-24T01:55:43.193Z,4.50
2018-03-24T01:58:10.661Z,4.53
2018-03-24T02:00:38.140Z,4.54
2018-03-24T02:03:05.671Z,4.53
2018-03-24T02:05:33.164Z,4.48
2018-03-24T02:08:00.629Z,4.52
2018-03-24T02:10:28.152Z,4.44
2018-03-24T02:12:55.629Z,4.54
2018-03-24T02:15:23.088Z,4.45
2018-03-24T02:17:50.546Z,4.56
2018-03-24T02:20:18.024Z,4.54
2018-03-24T02:22:45.495Z,4.49
2018-03-24T02:25:23.748Z,4.43
2018-03-24T02:27:51.212Z,4.36
2018-03-24T02:30:18.672Z,4.37
2018-03-24T02:32:46.221Z,4.37
2018-03-24T02:35:13.795Z,4.35
2018-03-24T02:37:41.279Z,4.35
2018-03-24T02:40:08.762Z,4.38
2018-03-24T02:42:36.296Z,4.32
2018-03-24T02:45:03.764Z,4.29
2018-03-24T02:47:31.234Z,4.29
2018-03-24T02:49:58.702Z,4.32
2018-03-24T02:52:26.189Z,4.41
2018-03-24T02:54:53.671Z,4.33
2018-03-24T02:57:21.171Z,4.34
2018-03-24T02:59:48.639Z,4.27
2018-03-24T03:02:16.123Z,4.23
2018-03-24T03:04:43.596Z,4.34
2018-03-24T03:07:11.080Z,4.29
2018-03-24T03:09:38.556Z,4.24
2018-03-24T03:12:06.007Z,4.26
2018-03-24T03:14:33.533Z,4.30
2018-03-24T03:17:00.991Z,4.22
2018-03-24T03:19:28.464Z,4.23
2018-03-24T03:21:56.008Z,4.27
2018-03-24T03:24:23.484Z,4.28
2018-03-24T03:26:50.921Z,4.22
2018-03-24T03:29:18.424Z,4.16
2018-03-24T03:31:50.448Z,4.21
2018-03-24T03:34:17.960Z,4.24
2018-03-24T03:36:45.443Z,4.25
2018-03-24T03:39:12.901Z,4.26
2018-03-24T03:41:40.363Z,4.23
2018-03-24T03:44:07.838Z,4.23
2018-03-24T03:46:35.363Z,4.20
2018-03-24T03:49:02.839Z,4.19
2018-03-24T03:51:30.308Z,4.15
2018-03-24T03:53:57.773Z,4.13
2018-03-24T03:56:25.248Z,4.15
2018-03-24T03:58:52.717Z,4.16
2018-03-24T04:01:20.246Z,4.17
2018-03-24T04:03:47.734Z,4.11
2018-03-24T04:06:15.376Z,4.11
2018-03-24T04:08:42.883Z,4.16
2018-03-24T04:11:10.326Z,4.13
2018-03-24T04:13:37.979Z,4.13
2018-03-24T04:16:05.638Z,4.11
2018-03-24T04:18:33.141Z,4.23
2018-03-24T04:21:00.557Z,4.23
2018-03-24T04:23:29.447Z,4.26
2018-03-24T04:25:56.925Z,4.22
2018-03-24T04:28:24.378Z,4.10
2018-03-24T04:30:51.856Z,4.17
2018-03-24T04:33:19.297Z,4.14
2018-03-24T04:35:46.785Z,4.15
2018-03-24T04:38:14.267Z,4.17
2018-03-24T04:40:41.722Z,4.13
2018-03-24T04:43:09.186Z,4.05
2018-03-24T04:45:36.639Z,4.05
2018-03-24T04:48:04.105Z,4.12
2018-03-24T04:50:31.571Z,4.15
2018-03-24T04:52:59.016Z,4.20
2018-03-24T04:55:26.494Z,4.10
2018-03-24T04:57:54.054Z,4.16
2018-03-24T05:00:21.511Z,4.17
2018-03-24T05:02:49.016Z,4.14
2018-03-24T05:05:16.516Z,4.05
2018-03-24T05:07:43.971Z,4.23
2018-03-24T05:10:11.468Z,4.25
2018-03-24T05:12:38.941Z,4.19
2018-03-24T05:15:06.616Z,4.10
2018-03-24T05:17:34.060Z,4.19
2018-03-24T05:20:01.523Z,4.34
2018-03-24T05:22:29.013Z,4.41
2018-03-24T05:24:56.478Z,4.41
2018-03-24T05:27:23.915Z,4.41
2018-03-24T05:29:51.418Z,4.40
2018-03-24T05:32:18.872Z,4.34
2018-03-24T05:34:46.536Z,4.43
2018-03-24T05:37:14.018Z,4.53
2018-03-24T05:39:41.520Z,4.58
2018-03-24T05:42:08.984Z,4.60
2018-03-24T05:44:36.450Z,4.60
2018-03-24T05:47:03.958Z,4.66
2018-03-24T05:49:31.422Z,4.73
2018-03-24T05:51:58.895Z,4.80
2018-03-24T05:54:26.377Z,4.92
2018-03-24T05:56:54.772Z,4.91
2018-03-24T05:59:22.222Z,5.01
2018-03-24T06:01:49.707Z,5.08
2018-03-24T06:04:17.233Z,5.09
2018-03-24T06:06:44.731Z,5.21
2018-03-24T06:09:12.196Z,5.30
2018-03-24T06:11:40.599Z,5.31
2018-03-24T06:14:08.111Z,5.35
2018-03-24T06:16:35.588Z,5.43
2018-03-24T06:19:03.082Z,5.53
2018-03-24T06:21:30.615Z,5.62
2018-03-24T06:23:58.275Z,5.54
2018-03-24T06:26:25.769Z,5.51
2018-03-24T06:28:53.300Z,5.60
2018-03-24T06:31:20.784Z,5.61
2018-03-24T06:33:48.292Z,5.61
2018-03-24T06:36:16.282Z,5.66
2018-03-24T06:38:43.790Z,5.87
2018-03-24T06:41:11.274Z,6.01
2018-03-24T06:43:39.256Z,6.19
2018-03-24T06:46:06.723Z,6.27
2018-03-24T06:48:34.278Z,6.35
2018-03-24T06:51:01.816Z,6.41
2018-03-24T06:53:29.270Z,6.33
2018-03-24T06:55:58.391Z,6.31
2018-03-24T06:58:25.888Z,6.32
2018-03-24T07:00:53.380Z,6.41
2018-03-24T07:03:20.870Z,6.60
2018-03-24T07:05:48.327Z,6.73
2018-03-24T07:08:15.826Z,6.85
2018-03-24T07:10:43.288Z,7.06
2018-03-24T07:13:10.764Z,7.05
2018-03-24T07:15:38.237Z,7.12
2018-03-24T07:18:05.757Z,7.06
2018-03-24T07:20:33.310Z,7.08
2018-03-24T07:23:01.131Z,6.97
2018-03-24T07:25:28.600Z,7.09
2018-03-24T07:27:56.128Z,7.14
2018-03-24T07:30:23.623Z,7.34
2018-03-24T07:32:51.091Z,7.30
2018-03-24T07:35:18.617Z,7.35
2018-03-24T07:37:46.094Z,7.36
2018-03-24T07:40:13.573Z,7.26
2018-03-24T07:42:41.096Z,7.28
2018-03-24T07:45:08.616Z,7.20
2018-03-24T07:47:36.243Z,7.03
2018-03-24T07:50:03.720Z,6.89
2018-03-24T07:52:31.183Z,6.84
2018-03-24T07:54:58.688Z,6.80
2018-03-24T07:57:27.476Z,6.74
2018-03-24T07:59:55.082Z,6.85
2018-03-24T08:02:22.599Z,6.99
2018-03-24T08:04:50.065Z,6.97
2018-03-24T08:07:17.602Z,7.08
2018-03-24T08:09:45.129Z,7.05
2018-03-24T08:12:12.580Z,6.93
2018-03-24T08:14:40.123Z,7.03
2018-03-24T08:17:07.745Z,7.15
2018-03-24T08:19:35.671Z,7.18
2018-03-24T08:22:03.175Z,7.21
2018-03-24T08:24:30.942Z,7.20
2018-03-24T08:26:59.629Z,7.20
2018-03-24T08:29:27.158Z,7.17
2018-03-24T08:31:54.652Z,7.43
2018-03-24T08:34:22.168Z,7.49
2018-03-24T08:36:49.648Z,7.71
2018-03-24T08:39:17.198Z,7.74
2018-03-24T08:41:44.766Z,7.80
2018-03-24T08:44:12.293Z,7.99
2018-03-24T08:46:39.928Z,8.09
2018-03-24T08:49:07.436Z,8.15
2018-03-24T08:51:35.025Z,8.19
2018-03-24T08:54:02.478Z,8.20
2018-03-24T08:56:29.967Z,8.37
2018-03-24T08:58:57.628Z,8.55
2018-03-24T09:01:25.197Z,8.64
2018-03-24T09:03:52.799Z,8.69
2018-03-24T09:06:20.289Z,8.45
2018-03-24T09:08:47.827Z,8.68
2018-03-24T09:11:15.329Z,8.68
2018-03-24T09:13:42.842Z,8.65
2018-03-24T09:16:10.425Z,8.65
2018-03-24T09:18:37.906Z,8.90
2018-03-24T09:21:05.415Z,9.00
2018-03-24T09:23:32.930Z,8.93
2018-03-24T09:26:00.444Z,9.12
2018-03-24T09:28:27.968Z,9.10
2018-03-24T09:30:55.483Z,9.14
2018-03-24T09:33:22.965Z,9.26
2018-03-24T09:35:50.435Z,9.39
2018-03-24T09:38:17.941Z,9.60
2018-03-24T09:40:45.431Z,9.53
2018-03-24T09:43:12.951Z,9.43
2018-03-24T09:45:40.414Z,9.42
2018-03-24T09:48:07.922Z,9.57
2018-03-24T09:50:35.414Z,9.85
2018-03-24T09:53:02.871Z,9.85
2018-03-24T09:55:30.353Z,9.74
2018-03-24T09:57:57.855Z,9.70
2018-03-24T10:00:25.321Z,9.48
2018-03-24T10:02:52.872Z,9.47
2018-03-24T10:05:20.332Z,9.62
2018-03-24T10:07:47.819Z,9.83
2018-03-24T10:10:15.337Z,10.00
2018-03-24T10:12:42.839Z,10.08
2018-03-24T10:15:11.072Z,10.34
2018-03-24T10:17:38.563Z,10.54
2018-03-24T10:20:06.115Z,10.39
2018-03-24T10:22:55.086Z,10.56
2018-03-24T10:25:22.595Z,10.69
2018-03-24T10:27:50.151Z,10.81
2018-03-24T10:30:17.626Z,10.65
2018-03-24T10:32:45.155Z,10.49
2018-03-24T10:35:12.633Z,10.36
2018-03-24T10:37:45.587Z,10.44
2018-03-24T10:40:13.213Z,10.64
2018-03-24T10:42:40.721Z,10.88
2018-03-24T10:45:08.792Z,11.15
2018-03-24T10:47:36.270Z,11.35
2018-03-24T10:50:03.767Z,11.62
2018-03-24T10:52:31.254Z,11.74
2018-03-24T10:54:59.469Z,11.96
2018-03-24T10:57:27.844Z,12.19
2018-03-24T10:59:55.306Z,12.18
2018-03-24T11:02:22.780Z,12.31
2018-03-24T11:04:50.295Z,12.27
2018-03-24T11:07:17.783Z,12.29
2018-03-24T11:09:45.254Z,12.12
2018-03-24T11:12:12.746Z,12.22
2018-03-24T11:14:40.260Z,12.25
2018-03-24T11:17:07.759Z,12.23
2018-03-24T11:19:35.239Z,12.10
2018-03-24T11:22:02.717Z,12.24
2018-03-24T11:24:30.279Z,12.34
2018-03-24T11:26:58.643Z,12.08
2018-03-24T11:29:26.114Z,12.26
2018-03-24T11:31:53.594Z,12.31
2018-03-24T11:34:21.141Z,12.49
2018-03-24T11:36:49.190Z,12.55
2018-03-24T11:39:16.712Z,12.44
2018-03-24T11:41:44.260Z,12.61
2018-03-24T11:44:11.727Z,12.68
2018-03-24T11:46:39.257Z,12.57
2018-03-24T11:49:07.011Z,12.58
2018-03-24T11:51:34.475Z,12.69
2018-03-24T11:54:02.014Z,12.61
2018-03-24T11:56:29.497Z,12.50
2018-03-24T11:58:57.083Z,12.30
2018-03-24T12:01:25.706Z,12.35
2018-03-24T12:03:53.176Z,12.27
2018-03-24T12:06:20.637Z,12.41
2018-03-24T12:08:48.155Z,12.24
2018-03-24T12:11:15.619Z,12.05
2018-03-24T12:13:43.293Z,12.19
2018-03-24T12:16:10.866Z,12.25
2018-03-24T12:18:38.407Z,12.34
2018-03-24T12:21:05.863Z,12.25
2018-03-24T12:23:33.317Z,12.17
2018-03-24T12:26:00.819Z,12.25
2018-03-24T12:28:28.315Z,12.19
2018-03-24T12:30:55.763Z,12.02
2018-03-24T12:33:23.246Z,12.20
2018-03-24T12:35:50.702Z,12.36
2018-03-24T12:38:18.347Z,12.51
2018-03-24T12:40:45.812Z,12.50
2018-03-24T12:43:13.283Z,12.62
2018-03-24T12:45:40.777Z,12.73
2018-03-24T12:48:08.236Z,12.88
2018-03-24T12:50:35.736Z,12.96
2018-03-24T12:53:03.245Z,12.83
2018-03-24T12:55:30.752Z,12.84
2018-03-24T12:57:58.393Z,12.72
2018-03-24T13:00:25.982Z,12.94
2018-03-24T13:02:53.443Z,13.12
2018-03-24T13:05:20.969Z,13.35
2018-03-24T13:07:49.180Z,13.58
2018-03-24T13:10:18.309Z,13.53
2018-03-24T13:12:45.783Z,13.51
2018-03-24T13:15:13.279Z,13.53
2018-03-24T13:17:40.764Z,13.90
2018-03-24T13:20:08.228Z,13.99
2018-03-24T13:22:35.764Z,14.30
2018-03-24T13:25:03.264Z,14.44
2018-03-24T13:27:30.781Z,14.53
2018-03-24T13:29:58.268Z,14.64
2018-03-24T13:32:25.799Z,14.74
2018-03-24T13:34:53.252Z,14.83
2018-03-24T13:37:20.712Z,14.70
2018-03-24T13:39:48.191Z,14.48
2018-03-24T13:42:15.657Z,14.46
2018-03-24T13:44:43.158Z,14.69
2018-03-24T13:47:10.666Z,14.93
2018-03-24T13:49:38.133Z,14.90
2018-03-24T13:52:06.876Z,14.55
2018-03-24T13:54:34.403Z,14.58
2018-03-24T13:57:02.006Z,14.67
2018-03-24T13:59:29.468Z,14.47
2018-03-24T14:01:56.945Z,14.51
2018-03-24T14:04:24.407Z,14.77
2018-03-24T14:06:51.863Z,14.86
2018-03-24T14:09:19.347Z,14.89
2018-03-24T14:11:46.867Z,15.06
2018-03-24T14:14:14.307Z,15.61
2018-03-24T14:16:41.799Z,15.99
2018-03-24T14:19:09.279Z,16.30
2018-03-24T14:21:36.755Z,17.10
2018-03-24T14:24:04.216Z,17.42
2018-03-24T14:26:31.689Z,17.97
2018-03-24T14:28:59.208Z,18.36
2018-03-24T14:31:26.707Z,18.97
2018-03-24T14:33:54.180Z,18.89
2018-03-24T14:36:21.658Z,18.95
2018-03-24T14:38:49.128Z,18.59
2018-03-24T14:41:16.648Z,18.96
2018-03-24T14:43:44.147Z,19.62
2018-03-24T14:46:11.672Z,20.39
2018-03-24T14:48:39.164Z,20.19
2018-03-24T14:51:07.447Z,20.04
2018-03-24T14:53:34.952Z,19.71
2018-03-24T14:56:02.435Z,19.82
2018-03-24T14:58:29.926Z,20.14
2018-03-24T15:00:57.444Z,20.16
2018-03-24T15:03:24.939Z,19.92
2018-03-24T15:05:52.406Z,19.95
2018-03-24T15:08:20.704Z,19.87
2018-03-24T15:10:48.272Z,19.99
2018-03-24T15:13:15.761Z,19.98
2018-03-24T15:15:43.234Z,19.66
2018-03-24T15:18:10.702Z,19.91
2018-03-24T15:20:38.411Z,19.85
2018-03-24T15:23:05.885Z,20.21
2018-03-24T15:25:33.349Z,19.71
2018-03-24T15:28:00.836Z,19.86
2018-03-24T15:30:40.128Z,19.67
2018-03-24T15:33:19.440Z,19.31
2018-03-24T15:35:58.720Z,19.02
2018-03-24T15:38:26.228Z,19.07
2018-03-24T15:40:53.720Z,18.99
2018-03-24T15:43:21.188Z,19.24
2018-03-24T15:45:48.655Z,18.89
2018-03-24T15:48:16.131Z,18.92
2018-03-24T15:50:43.593Z,18.34
2018-03-24T15:53:11.058Z,18.05
2018-03-24T15:55:38.597Z,17.97
2018-03-24T15:58:06.092Z,17.72
2018-03-24T16:00:34.510Z,17.44
2018-03-24T16:03:02.010Z,16.71
2018-03-24T16:05:29.566Z,16.44
2018-03-24T16:07:57.123Z,16.30
2018-03-24T16:10:24.802Z,16.44
2018-03-24T16:12:52.304Z,16.02
2018-03-24T16:15:19.813Z,15.62
2018-03-24T16:17:47.303Z,15.33
2018-03-24T16:20:14.862Z,14.93
2018-03-24T16:22:42.345Z,14.44
2018-03-24T16:25:09.797Z,14.03
2018-03-24T16:27:37.275Z,13.69
2018-03-24T16:30:04.783Z,13.31
2018-03-24T16:32:32.248Z,13.37
2018-03-24T16:34:59.734Z,13.11
2018-03-24T16:37:27.199Z,12.88
2018-03-24T16:39:55.327Z,12.37
2018-03-24T16:42:22.847Z,12.01
2018-03-24T16:44:50.302Z,11.84
2018-03-24T16:47:18.984Z,11.59
2018-03-24T16:49:46.568Z,11.18
2018-03-24T16:52:14.046Z,10.95
2018-03-24T16:54:41.603Z,10.62
2018-03-24T16:57:09.121Z,10.14
2018-03-24T16:59:36.610Z,9.89
2018-03-24T17:02:04.141Z,9.62
2018-03-24T17:04:31.647Z,9.24
2018-03-24T17:06:59.188Z,9.05
2018-03-24T17:09:26.835Z,8.77
2018-03-24T17:11:54.349Z,8.57
2018-03-24T17:14:21.871Z,8.28
2018-03-24T17:16:49.372Z,8.03
2018-03-24T17:19:16.966Z,7.76
2018-03-24T17:21:44.460Z,7.61
2018-03-24T17:24:11.957Z,7.49
2018-03-24T17:26:39.536Z,7.37
2018-03-24T17:29:08.172Z,7.30
2018-03-24T17:31:35.800Z,7.18
2018-03-24T17:34:03.329Z,7.14
2018-03-24T17:36:30.864Z,7.04
2018-03-24T17:38:58.391Z,6.85
2018-03-24T17:41:25.865Z,6.73
2018-03-24T17:43:53.348Z,6.60
2018-03-24T17:46:20.824Z,6.60
2018-03-24T17:48:48.363Z,6.61
2018-03-24T17:51:15.908Z,6.49
2018-03-24T17:53:43.374Z,6.43
2018-03-24T17:56:10.892Z,6.33
2018-03-24T17:58:38.367Z,6.17
2018-03-24T18:01:05.879Z,6.14
2018-03-24T18:03:33.404Z,6.02
2018-03-24T18:06:00.922Z,5.92
2018-03-24T18:08:28.390Z,5.88
2018-03-24T18:10:55.882Z,5.86
2018-03-24T18:13:23.883Z,5.75
2018-03-24T18:15:51.345Z,5.72
2018-03-24T18:18:18.849Z,5.72
2018-03-24T18:20:46.353Z,5.68
2018-03-24T18:23:13.863Z,5.54
2018-03-24T18:25:41.443Z,5.45
2018-03-24T18:28:09.110Z,5.43
2018-03-24T18:30:36.884Z,5.38
2018-03-24T18:33:04.415Z,5.39
2018-03-24T18:37:58.972Z,5.39
2018-03-24T18:40:26.753Z,5.37
2018-03-24T18:42:54.287Z,5.24
2018-03-24T18:45:21.796Z,5.22
2018-03-24T18:47:49.312Z,5.16
2018-03-24T18:50:16.881Z,5.10
2018-03-24T18:52:44.992Z,5.07
2018-03-24T18:55:12.624Z,4.94
2018-03-24T18:57:40.116Z,4.91
2018-03-24T19:00:07.765Z,4.88
2018-03-24T19:02:35.582Z,4.79
2018-03-24T19:05:03.299Z,4.74
2018-03-24T19:07:30.767Z,4.73
2018-03-24T19:09:58.498Z,4.52
2018-03-24T19:12:26.061Z,4.48
2018-03-24T19:14:53.575Z,4.45
2018-03-24T19:17:21.064Z,4.40
2018-03-24T19:19:48.549Z,4.42
2018-03-24T19:22:16.112Z,4.43
2018-03-24T19:24:43.688Z,4.45
2018-03-24T19:27:11.169Z,4.31
2018-03-24T19:29:38.650Z,4.26
2018-03-24T19:32:06.112Z,4.17
2018-03-24T19:34:33.903Z,4.09
2018-03-24T19:37:01.438Z,4.02
2018-03-24T19:39:29.111Z,4.03
2018-03-24T19:41:56.817Z,3.96
2018-03-24T19:44:24.327Z,3.91
2018-03-24T19:46:51.800Z,3.90
2018-03-24T19:49:19.312Z,3.90
2018-03-24T19:51:46.784Z,3.82
2018-03-24T19:54:14.505Z,3.80
2018-03-24T19:56:42.289Z,3.69
2018-03-24T19:59:09.917Z,3.60
2018-03-24T20:01:37.421Z,3.52
2018-03-24T20:04:05.192Z,3.52
2018-03-24T20:06:32.725Z,3.58
2018-03-24T20:09:00.271Z,3.62
2018-03-24T20:11:28.069Z,3.51
2018-03-24T20:13:55.920Z,3.41
2018-03-24T20:16:23.674Z,3.31
2018-03-24T20:18:51.464Z,3.28
2018-03-24T20:21:19.230Z,3.25
2018-03-24T20:23:46.996Z,3.20
2018-03-24T20:26:14.530Z,3.17
2018-03-24T20:28:42.034Z,3.10
2018-03-24T20:31:09.672Z,3.14
2018-03-24T20:33:38.129Z,3.02
2018-03-24T20:36:05.867Z,2.99
2018-03-24T20:38:33.484Z,2.98
2018-03-24T20:41:00.996Z,2.86
2018-03-24T20:43:29.741Z,2.79
2018-03-24T20:45:57.284Z,2.84
2018-03-24T20:48:24.732Z,2.76
2018-03-24T20:50:52.198Z,2.70
2018-03-24T20:53:19.695Z,2.69
2018-03-24T20:55:47.311Z,2.63
2018-03-24T20:58:15.034Z,2.73
2018-03-24T21:00:42.674Z,2.69
2018-03-24T21:03:10.260Z,2.66
2018-03-24T21:05:37.872Z,2.61
2018-03-24T21:08:05.483Z,2.49
2018-03-24T21:10:33.153Z,2.40
2018-03-24T21:13:00.834Z,2.42
2018-03-24T21:15:28.426Z,2.51
2018-03-24T21:17:56.088Z,2.44
2018-03-24T21:20:24.016Z,2.48
2018-03-24T21:22:51.822Z,2.46
2018-03-24T21:25:19.515Z,2.33
2018-03-24T21:27:48.289Z,2.36
2018-03-24T21:30:16.020Z,2.27
2018-03-24T21:32:43.690Z,2.46
2018-03-24T21:35:11.425Z,2.41
2018-03-24T21:37:39.061Z,2.33
2018-03-24T21:40:06.638Z,2.19
2018-03-24T21:42:34.198Z,2.16
2018-03-24T21:45:01.730Z,2.22
2018-03-24T21:47:29.294Z,2.29
2018-03-24T21:49:57.049Z,2.30
2018-03-24T21:52:24.594Z,2.13
2018-03-24T21:54:52.228Z,2.05
2018-03-24T21:57:19.784Z,1.93
2018-03-24T21:59:47.293Z,1.87
2018-03-24T22:02:14.770Z,1.93
2018-03-24T22:04:42.268Z,1.93
2018-03-24T22:07:09.741Z,1.93
2018-03-24T22:09:37.276Z,1.78
2018-03-24T22:12:04.749Z,1.81
2018-03-24T22:14:32.192Z,1.67
2018-03-24T22:17:01.154Z,1.72
2018-03-24T22:19:28.624Z,1.62
2018-03-24T22:21:56.155Z,1.68
2018-03-24T22:24:23.629Z,1.61
2018-03-24T22:26:51.138Z,1.55
2018-03-24T22:29:18.660Z,1.52
2018-03-24T22:31:46.160Z,1.49
2018-03-24T22:34:13.667Z,1.43
2018-03-24T22:36:41.213Z,1.39
2018-03-24T22:39:08.749Z,1.53
2018-03-24T22:41:36.245Z,1.63
2018-03-24T22:44:03.729Z,1.64
2018-03-24T22:46:31.190Z,1.60
2018-03-24T22:48:58.667Z,1.58
2018-03-24T22:51:26.285Z,1.63
2018-03-24T22:53:53.783Z,1.61
2018-03-24T22:56:21.290Z,1.56
2018-03-24T22:58:48.754Z,1.56
2018-03-24T23:01:22.252Z,1.50
2018-03-24T23:03:49.723Z,1.49
2018-03-24T23:06:17.199Z,1.58
2018-03-24T23:08:44.741Z,1.44
2018-03-24T23:11:12.165Z,1.34
2018-03-24T23:13:39.655Z,1.33
2018-03-24T23:16:07.185Z,1.32
2018-03-24T23:18:34.659Z,1.46
2018-03-24T23:21:02.120Z,1.41
2018-03-24T23:23:29.583Z,1.23
2018-03-24T23:25:57.159Z,1.25
2018-03-24T23:28:25.094Z,1.25
2018-03-24T23:30:55.527Z,1.16
2018-03-24T23:33:23.155Z,1.25
2018-03-24T23:35:50.639Z,1.43
2018-03-24T23:38:18.090Z,1.41
2018-03-24T23:40:45.777Z,1.37
2018-03-24T23:43:13.249Z,1.43
2018-03-24T23:45:40.773Z,1.43
2018-03-24T23:48:08.257Z,1.43
2018-03-24T23:50:35.735Z,1.44
2018-03-24T23:53:03.200Z,1.45
2018-03-24T23:55:30.653Z,1.46
2018-03-24T23:57:58.151Z,1.43
